»·PEaware :: SWA798 KRNO-KSFO

SWA798 :: KRNO-KSFO

FLIGHT INFORMATION

Flight Status: Arrived
Operator:
Southwest Airlines
More flights by this operator :: More flights under this callsign
Pilot: Ben F. (2808)
Aircraft: BOEING 737-800
(B738)
More flights by this aircraft type
Origin: KRNO Reno/Tahoe Intl
United States
Destination: KSFO San Francisco Intl
United States
More flights between these airports :: More routes between these airports
Route: ZEFFR6 MRLET LEGGS BDEGA3
File this flight plan on PilotEdge
Remarks:
Altitude:
(Current/Filed)
28,000ft
Speed:
(Current/Filed)
474kts
Departed: 13-Oct-20 08:35 AM
Arrived: 13-Oct-20 09:21 AM
Distance/Time
Traveled:
167nm/0:45
Distance/Time
To Go:
Arrived

Flight Plot

Page will automatically refresh every two minutes.

Flight plan parsing failed; only flown route is shown


Map Options




Map Legend


Flown Route
Filed Route
Departure Airport
Arrival Airport
Navaid (VOR, NDB)
Fix

Horizontal Profiles

Position Reports

Time Latitude Longitude Heading Altitude Ground
Speed
13-Oct-20 08:08 39.504460 -119.773761 359 4423ft 0kts
13-Oct-20 08:09 39.504460 -119.773761 359 4423ft 0kts
13-Oct-20 08:10 39.504460 -119.773761 359 4423ft 0kts
13-Oct-20 08:11 39.504460 -119.773761 359 4423ft 0kts
13-Oct-20 08:12 39.504460 -119.773761 359 4423ft 0kts
13-Oct-20 08:13 39.504460 -119.773761 359 4423ft 0kts
13-Oct-20 08:14 39.504460 -119.773761 359 4423ft 0kts
13-Oct-20 08:15 39.504460 -119.773761 359 4423ft 0kts
13-Oct-20 08:16 39.504460 -119.773761 359 4423ft 0kts
13-Oct-20 08:17 39.504460 -119.773761 359 4423ft 0kts
13-Oct-20 08:18 39.504460 -119.773761 359 4423ft 0kts
13-Oct-20 08:19 39.504460 -119.773761 359 4423ft 0kts
13-Oct-20 08:20 39.504460 -119.773761 359 4423ft 0kts
13-Oct-20 08:21 39.504460 -119.773761 359 4423ft 0kts
13-Oct-20 08:22 39.504460 -119.773761 359 4423ft 0kts
13-Oct-20 08:23 39.504460 -119.773761 359 4423ft 0kts
13-Oct-20 08:24 39.504460 -119.773761 359 4423ft 0kts
13-Oct-20 08:25 39.504420 -119.773760 0 4423ft 1kts
13-Oct-20 08:26 39.503731 -119.774045 78 4423ft 2kts
13-Oct-20 08:27 39.503721 -119.774120 90 4423ft 0kts
13-Oct-20 08:28 39.503721 -119.774119 90 4423ft 0kts
13-Oct-20 08:29 39.503745 -119.772327 90 4423ft 0kts
13-Oct-20 08:30 39.505131 -119.771499 1 4423ft 24kts
13-Oct-20 08:31 39.511241 -119.771475 359 4423ft 19kts
13-Oct-20 08:32 39.513773 -119.770406 91 4423ft 0kts
13-Oct-20 08:33 39.513580 -119.769394 143 4423ft 9kts
13-Oct-20 08:34 39.487745 -119.769453 180 4825ft 167kts
13-Oct-20 08:35 39.432043 -119.770995 181 6566ft 247kts
13-Oct-20 08:36 39.355289 -119.769682 180 9324ft 289kts
13-Oct-20 08:37 39.271130 -119.782999 196 11599ft 336kts
13-Oct-20 08:38 39.173808 -119.815622 210 13673ft 371kts
13-Oct-20 08:39 39.133338 -119.925043 282 16390ft 360kts
13-Oct-20 08:40 39.163098 -120.049757 284 18846ft 369kts
13-Oct-20 08:41 39.186440 -120.180747 282 20894ft 383kts
13-Oct-20 08:42 39.209617 -120.317345 283 22739ft 395kts
13-Oct-20 08:43 39.233163 -120.457620 282 24367ft 406kts
13-Oct-20 08:44 39.256884 -120.601739 282 25900ft 414kts
13-Oct-20 08:45 39.281077 -120.748021 282 27634ft 415kts
13-Oct-20 08:46 39.304610 -120.894172 282 28394ft 416kts
13-Oct-20 08:47 39.327598 -121.040572 279 28359ft 415kts
13-Oct-20 08:48 39.285480 -121.176823 234 28274ft 431kts
13-Oct-20 08:49 39.207160 -121.294438 233 28230ft 432kts
13-Oct-20 08:50 39.129304 -121.412503 233 28197ft 432kts
13-Oct-20 08:51 39.051885 -121.531151 233 28201ft 432kts
13-Oct-20 08:52 38.974189 -121.649254 233 28207ft 433kts
13-Oct-20 08:53 38.896011 -121.767466 233 28204ft 434kts
13-Oct-20 08:54 38.817661 -121.885479 232 28200ft 435kts
13-Oct-20 08:55 38.738913 -122.003651 232 28216ft 436kts
13-Oct-20 08:56 38.660303 -122.121268 232 28207ft 435kts
13-Oct-20 08:57 38.583163 -122.236601 232 28204ft 418kts
13-Oct-20 08:58 38.508136 -122.347650 232 27035ft 405kts
13-Oct-20 08:59 38.435307 -122.455428 233 25131ft 395kts
13-Oct-20 09:00 38.364963 -122.560410 233 23263ft 385kts
13-Oct-20 09:01 38.295910 -122.662358 233 21417ft 374kts
13-Oct-20 09:02 38.224345 -122.756047 211 19405ft 379kts
13-Oct-20 09:03 38.119948 -122.743276 159 17497ft 396kts
13-Oct-20 09:04 38.018317 -122.707290 171 15719ft 364kts
13-Oct-20 09:05 37.922469 -122.679747 167 14062ft 346kts
13-Oct-20 09:06 37.842336 -122.613100 140 12432ft 348kts
13-Oct-20 09:07 37.769323 -122.535309 141 11155ft 331kts
13-Oct-20 09:08 37.702253 -122.464137 140 11020ft 309kts
13-Oct-20 09:09 37.637088 -122.394960 141 10997ft 286kts
13-Oct-20 09:10 37.577981 -122.343049 154 10263ft 264kts
13-Oct-20 09:11 37.515962 -122.297190 125 8751ft 259kts
13-Oct-20 09:12 37.479998 -122.219598 119 7266ft 255kts
13-Oct-20 09:13 37.448272 -122.146096 100 5870ft 245kts
13-Oct-20 09:14 37.488183 -122.104495 335 4468ft 222kts
13-Oct-20 09:15 37.525668 -122.159582 306 3656ft 197kts
13-Oct-20 09:16 37.551063 -122.214005 298 2938ft 169kts
13-Oct-20 09:17 37.573168 -122.266813 300 1516ft 159kts
13-Oct-20 09:18 37.593295 -122.314588 298 833ft 156kts
13-Oct-20 09:19 37.613451 -122.362396 299 39ft 151kts
13-Oct-20 09:20 37.621363 -122.383157 198 21ft 9kts
13-Oct-20 09:21 37.619510 -122.381652 116 21ft 17kts
13-Oct-20 09:22 37.616208 -122.379912 206 21ft 13kts
13-Oct-20 09:23 37.613471 -122.382183 287 21ft 11kts
13-Oct-20 09:24 37.613720 -122.383308 239 21ft 2kts
13-Oct-20 09:25 37.613279 -122.383721 210 21ft 0kts
13-Oct-20 09:26 37.613279 -122.383721 210 21ft 0kts

Navigation Log

Ident Type
Flight plan parsing failed, navigation log unavailable